Time;durP1;ratioP1;P1;durP2;ratioP2;P2;SDS_P1;SDS_P2;PMS_P1;PMS_P2;Temp;Humidity;BMP_temperature;BMP_pressure;BME280_temperature;BME280_humidity;BME280_pressure;Samples;Min_cycle;Max_cycle;Signal;HPM_P1;HPM_P2
2021/09/21 00:01:20;;;;;;;3.55;2.52;;;;;;;4.22;89.41;93303.98;1777177;77;21473;-86
2021/09/21 00:03:47;;;;;;;3.30;2.60;;;;;;;4.25;89.43;93312.12;1806042;77;20986;-85
2021/09/21 00:06:13;;;;;;;4.65;2.58;;;;;;;4.27;89.56;93311.18;1724594;78;20996;-85
2021/09/21 00:08:40;;;;;;;7.20;4.00;;;;;;;4.30;89.50;93313.73;1768740;78;21070;-85
2021/09/21 00:11:09;;;;;;;7.92;3.47;;;;;;;4.26;89.42;93312.32;1783742;78;21542;-85
2021/09/21 00:13:35;;;;;;;8.63;4.22;;;;;;;4.23;89.52;93310.34;1770984;79;21777;-86
2021/09/21 00:16:04;;;;;;;9.08;4.03;;;;;;;4.23;89.60;93317.06;1753264;79;21120;-85
2021/09/21 00:18:30;;;;;;;7.22;3.67;;;;;;;4.18;89.87;93305.26;1801330;79;21056;-86
2021/09/21 00:20:59;;;;;;;6.85;3.60;;;;;;;4.12;89.96;93307.45;1756539;80;21600;-86
2021/09/21 00:23:26;;;;;;;6.17;3.77;;;;;;;4.10;90.05;93304.36;1726683;80;21057;-86
2021/09/21 00:25:54;;;;;;;7.55;4.30;;;;;;;4.08;90.14;93304.48;1763763;79;21617;-85
2021/09/21 00:28:20;;;;;;;6.25;3.45;;;;;;;4.06;90.34;93307.55;1749969;81;21022;-85
2021/09/21 00:30:49;;;;;;;6.95;3.72;;;;;;;4.10;90.50;93312.42;1744245;80;21074;-85
2021/09/21 00:33:18;;;;;;;8.10;3.77;;;;;;;4.13;90.67;93312.27;1728509;81;21109;-86
2021/09/21 00:35:47;;;;;;;5.78;3.52;;;;;;;4.20;90.72;93307.58;1761891;78;21053;-86
2021/09/21 00:38:16;;;;;;;5.87;3.10;;;;;;;4.26;90.60;93311.55;1791785;79;21568;-86
2021/09/21 00:40:43;;;;;;;3.90;3.50;;;;;;;4.27;90.61;93309.83;1772389;79;21204;-86
2021/09/21 00:43:09;;;;;;;6.00;3.02;;;;;;;4.26;90.62;93310.20;1772395;80;21498;-86
2021/09/21 00:45:35;;;;;;;4.55;3.00;;;;;;;4.21;90.85;93310.48;1772723;79;21094;-85
2021/09/21 00:48:02;;;;;;;2.52;2.00;;;;;;;4.14;90.92;93313.84;1752577;80;21738;-86
2021/09/21 00:50:30;;;;;;;2.15;1.67;;;;;;;4.11;91.07;93317.23;1765783;80;21009;-87
2021/09/21 00:53:00;;;;;;;4.22;2.58;;;;;;;4.07;91.12;93319.09;1777802;78;21060;-85
2021/09/21 00:55:28;;;;;;;3.15;2.20;;;;;;;4.03;91.38;93320.94;1745205;80;21512;-85
2021/09/21 00:57:54;;;;;;;4.55;2.90;;;;;;;4.00;91.63;93310.30;1744928;81;21083;-85
2021/09/21 01:00:22;;;;;;;6.35;3.05;;;;;;;4.02;91.61;93320.70;1769192;80;21088;-86
2021/09/21 01:02:49;;;;;;;6.00;3.25;;;;;;;4.04;91.65;93319.80;1758589;79;21667;-86
2021/09/21 01:05:15;;;;;;;9.15;3.40;;;;;;;4.06;91.76;93321.55;1790142;78;21057;-86
2021/09/21 01:07:43;;;;;;;5.62;2.95;;;;;;;4.05;91.72;93315.95;1796803;78;21680;-86
2021/09/21 01:10:15;;;;;;;7.58;3.15;;;;;;;4.05;91.80;93323.46;1737542;80;21009;-86
2021/09/21 01:12:41;;;;;;;5.28;3.08;;;;;;;4.05;91.89;93328.06;1776041;79;21675;-87
2021/09/21 01:15:09;;;;;;;3.22;2.15;;;;;;;4.05;91.92;93320.00;1750723;80;21038;-85
2021/09/21 01:17:37;;;;;;;5.20;2.12;;;;;;;4.06;91.61;93328.27;1768147;80;21657;-86
2021/09/21 01:20:06;;;;;;;4.05;2.27;;;;;;;4.01;91.53;93328.00;1775948;79;21092;-85
2021/09/21 01:22:33;;;;;;;2.12;1.80;;;;;;;3.97;91.60;93327.73;1783963;78;21002;-84
2021/09/21 01:25:02;;;;;;;3.50;2.55;;;;;;;3.94;91.53;93330.55;1848905;76;21056;-85
2021/09/21 01:27:28;;;;;;;4.33;2.08;;;;;;;3.94;91.58;93325.17;1817282;76;21470;-85
2021/09/21 01:29:54;;;;;;;3.83;2.40;;;;;;;3.95;91.73;93331.33;1786728;78;21480;-85
2021/09/21 01:32:22;;;;;;;3.75;2.30;;;;;;;3.97;91.67;93331.19;1765308;79;21503;-84
2021/09/21 01:34:51;;;;;;;2.55;1.92;;;;;;;3.98;91.79;93331.39;1753288;79;21172;-84
2021/09/21 01:37:19;;;;;;;5.37;2.98;;;;;;;4.04;91.86;93331.33;1788126;79;21851;-85
2021/09/21 01:39:45;;;;;;;5.37;3.35;;;;;;;4.09;91.62;93332.95;1842312;76;21085;-85
2021/09/21 01:42:15;;;;;;;6.83;3.52;;;;;;;4.09;91.44;93336.41;1794282;78;21058;-84
2021/09/21 01:44:45;;;;;;;6.58;3.40;;;;;;;4.11;91.63;93344.15;1799105;78;21048;-85
2021/09/21 01:47:11;;;;;;;4.47;2.67;;;;;;;4.14;91.78;93347.48;1808267;77;21043;-85
2021/09/21 01:50:04;;;;;;;5.00;2.80;;;;;;;4.14;91.73;93347.48;1781460;78;21094;-84
2021/09/21 01:52:15;;;;;;;4.87;2.35;;;;;;;4.13;91.80;93345.33;1766907;78;21881;-84
2021/09/21 01:59:54;;;;;;;4.97;2.53;;;;;;;4.17;92.06;93346.74;1781470;79;21264;-84
2021/09/21 02:02:20;;;;;;;3.45;2.20;;;;;;;4.18;92.00;93348.32;1786764;78;21119;-85
2021/09/21 02:04:47;;;;;;;3.22;1.90;;;;;;;4.19;92.17;93349.88;1800646;78;21124;-84
2021/09/21 02:07:14;;;;;;;4.05;2.50;;;;;;;4.20;92.40;93362.75;1746751;80;21047;-85
2021/09/21 02:09:40;;;;;;;5.55;2.25;;;;;;;4.18;92.58;93356.40;1760959;80;21055;-85
2021/09/21 02:12:08;;;;;;;3.10;2.33;;;;;;;4.23;92.71;93359.36;1787051;79;21417;-85
2021/09/21 02:14:35;;;;;;;5.70;2.75;;;;;;;4.27;92.62;93357.52;1786004;77;21010;-85
2021/09/21 02:17:01;;;;;;;4.45;2.52;;;;;;;4.27;92.51;93358.28;1838809;76;21048;-84
2021/09/21 02:19:28;;;;;;;3.95;2.60;;;;;;;4.27;92.56;93362.89;1807226;78;21025;-84
2021/09/21 02:21:56;;;;;;;3.15;2.40;;;;;;;4.26;92.62;93363.47;1790490;78;21076;-86
2021/09/21 02:24:24;;;;;;;3.45;2.40;;;;;;;4.26;92.60;93360.00;1775645;79;21558;-85
2021/09/21 02:26:51;;;;;;;4.00;2.50;;;;;;;4.21;92.57;93358.92;1771380;77;20931;-86
2021/09/21 02:29:17;;;;;;;3.10;2.30;;;;;;;4.20;92.67;93365.45;1818811;77;21095;-85
2021/09/21 02:31:44;;;;;;;2.62;2.22;;;;;;;4.19;92.81;93367.36;1801604;77;20977;-85
2021/09/21 02:34:10;;;;;;;2.20;1.70;;;;;;;4.19;93.05;93364.67;1782918;78;21072;-85
2021/09/21 02:36:41;;;;;;;3.12;2.15;;;;;;;4.19;93.13;93367.94;1747908;79;21067;-85
2021/09/21 02:39:05;;;;;;;4.20;2.40;;;;;;;4.17;93.18;93370.19;1797833;77;21030;-85
2021/09/21 02:41:31;;;;;;;5.95;3.10;;;;;;;4.20;93.34;93377.56;1816436;76;21107;-86
2021/09/21 02:43:58;;;;;;;5.90;2.90;;;;;;;4.22;93.19;93380.69;1776746;79;21484;-86
2021/09/21 02:46:26;;;;;;;2.67;2.00;;;;;;;4.24;93.25;93380.52;1779142;79;20963;-86
2021/09/21 02:48:53;;;;;;;4.20;2.90;;;;;;;4.26;93.03;93382.30;1767100;78;21045;-86
2021/09/21 02:51:20;;;;;;;4.58;2.00;;;;;;;4.28;93.10;93390.02;1770426;78;21014;-86
2021/09/21 02:53:48;;;;;;;5.17;1.80;;;;;;;4.30;93.22;93391.80;1764343;79;21010;-86
2021/09/21 02:56:16;;;;;;;3.47;2.05;;;;;;;4.29;92.90;93395.06;1802960;78;21685;-86
2021/09/21 02:58:43;;;;;;;4.78;2.50;;;;;;;4.29;92.60;93398.33;1841579;75;21564;-86
2021/09/21 03:01:10;;;;;;;3.40;2.20;;;;;;;4.27;92.67;93400.01;1789993;77;21619;-86
2021/09/21 03:03:47;;;;;;;4.67;2.70;;;;;;;4.24;92.82;93402.06;1805526;77;21264;-86
2021/09/21 03:06:22;;;;;;;4.95;2.25;;;;;;;4.21;92.85;93401.98;1804494;77;21890;-87
2021/09/21 03:08:41;;;;;;;3.37;1.45;;;;;;;4.19;93.15;93406.96;1790702;77;20983;-85
2021/09/21 03:11:14;;;;;;;4.95;2.90;;;;;;;4.19;93.13;93412.34;1773270;79;21489;-86
2021/09/21 03:17:08;;;;;;;2.47;1.62;;;;;;;4.19;92.99;93415.81;1812890;77;21033;-84
2021/09/21 03:19:10;;;;;;;1.30;1.05;;;;;;;4.20;90.04;93419.28;1778523;78;21640;-85
2021/09/21 03:21:38;;;;;;;2.02;1.40;;;;;;;4.19;87.66;93415.03;1780400;78;21062;-86
2021/09/21 03:24:04;;;;;;;1.50;1.30;;;;;;;4.18;87.49;93420.98;1775278;79;21664;-86
2021/09/21 03:26:33;;;;;;;1.80;1.27;;;;;;;4.19;87.35;93417.73;1788606;78;21137;-86
2021/09/21 03:29:01;;;;;;;1.07;0.95;;;;;;;4.20;87.06;93418.70;1771918;80;21057;-86
2021/09/21 03:31:28;;;;;;;0.88;0.75;;;;;;;4.22;86.88;93415.67;1816381;77;21925;-86
2021/09/21 03:33:54;;;;;;;4.30;0.93;;;;;;;4.24;86.44;93418.20;1790852;78;21069;-86
2021/09/21 03:36:21;;;;;;;1.05;0.80;;;;;;;4.22;86.06;93410.30;1762821;77;21024;-86
2021/09/21 03:38:47;;;;;;;0.78;0.78;;;;;;;4.21;85.60;93415.44;1717616;83;21513;-86
2021/09/21 03:41:15;;;;;;;1.12;1.02;;;;;;;4.21;85.40;93410.84;1702365;80;21071;-86
2021/09/21 03:43:41;;;;;;;12.05;5.08;;;;;;;4.22;85.29;93412.98;1728686;81;21075;-86
2021/09/21 03:46:09;;;;;;;7.97;3.80;;;;;;;4.24;84.70;93412.83;1741530;81;21046;-86
2021/09/21 03:48:35;;;;;;;6.58;3.45;;;;;;;4.29;84.92;93414.48;1729328;80;21019;-86
2021/09/21 03:51:01;;;;;;;14.25;5.78;;;;;;;4.30;84.58;93407.95;1750637;78;21046;-86
2021/09/21 03:53:28;;;;;;;19.90;8.98;;;;;;;4.29;84.60;93411.22;1772997;79;21722;-86
2021/09/21 03:55:56;;;;;;;16.30;6.78;;;;;;;4.31;84.82;93412.19;1719876;81;21120;-86
2021/09/21 03:58:22;;;;;;;6.25;3.33;;;;;;;4.31;84.68;93413.53;1715993;82;21540;-86
2021/09/21 04:00:50;;;;;;;2.33;1.15;;;;;;;4.33;84.75;93422.05;1749722;79;21101;-85
2021/09/21 04:03:17;;;;;;;1.82;1.35;;;;;;;4.32;83.45;93419.12;1754629;80;20999;-87
2021/09/21 04:05:43;;;;;;;0.95;0.95;;;;;;;4.33;82.89;93409.36;1732563;80;21463;-86
2021/09/21 04:08:10;;;;;;;2.45;1.02;;;;;;;4.34;82.83;93416.30;1751866;80;21474;-85
2021/09/21 04:10:36;;;;;;;1.32;1.22;;;;;;;4.34;83.10;93419.56;1743569;80;21290;-86
2021/09/21 04:13:03;;;;;;;2.33;2.00;;;;;;;4.32;82.49;93420.47;1738631;80;21044;-87
2021/09/21 04:15:30;;;;;;;2.45;1.70;;;;;;;4.27;83.60;93419.42;1728831;80;21054;-86
2021/09/21 04:17:57;;;;;;;1.67;1.52;;;;;;;4.19;84.36;93419.84;1738445;80;21058;-86
2021/09/21 04:20:26;;;;;;;1.62;1.32;;;;;;;4.11;85.01;93425.66;1719816;81;21140;-86
2021/09/21 04:22:52;;;;;;;2.22;1.22;;;;;;;4.05;85.52;93426.28;1715871;82;21423;-87
2021/09/21 04:25:20;;;;;;;1.40;1.30;;;;;;;4.01;86.17;93427.55;1734945;80;21089;-86
2021/09/21 04:27:47;;;;;;;1.02;1.00;;;;;;;4.00;85.40;93435.98;1717255;81;21020;-86
2021/09/21 04:30:21;;;;;;;1.27;1.22;;;;;;;3.98;85.48;93437.67;1752583;79;21050;-86
2021/09/21 04:32:48;;;;;;;1.98;1.47;;;;;;;3.98;85.99;93438.23;1777021;78;21086;-86
2021/09/21 04:35:14;;;;;;;2.58;1.80;;;;;;;3.99;86.58;93433.87;1760653;80;21068;-85
2021/09/21 04:37:42;;;;;;;3.60;2.10;;;;;;;4.00;86.77;93442.72;1728324;81;21085;-86
2021/09/21 04:40:10;;;;;;;3.90;2.25;;;;;;;3.99;87.15;93448.67;1739181;80;21049;-87
2021/09/21 04:42:38;;;;;;;3.85;2.37;;;;;;;4.00;87.52;93447.53;1750201;78;21129;-87
2021/09/21 04:45:06;;;;;;;2.58;2.17;;;;;;;4.00;87.33;93449.44;1784258;79;21147;-86
2021/09/21 04:47:33;;;;;;;3.65;2.90;;;;;;;4.02;86.42;93441.21;1743024;80;21066;-88
2021/09/21 04:50:00;;;;;;;3.30;2.80;;;;;;;4.02;86.42;93441.21;1752008;80;21568;-86
2021/09/21 04:52:27;;;;;;;2.37;2.12;;;;;;;4.04;86.41;93447.03;1743218;80;21049;-86
2021/09/21 04:54:54;;;;;;;2.45;2.25;;;;;;;4.08;86.82;93457.30;1775778;80;21057;-86
2021/09/21 04:57:20;;;;;;;1.92;1.82;;;;;;;4.09;87.03;93452.13;1779159;78;21103;-84
2021/09/21 04:59:46;;;;;;;2.20;2.00;;;;;;;4.13;86.89;93451.63;1786310;78;20985;-85
2021/09/21 05:02:13;;;;;;;5.80;2.72;;;;;;;4.16;86.94;93455.54;1820659;77;21355;-85
2021/09/21 05:04:39;;;;;;;4.00;2.60;;;;;;;4.18;86.84;93457.33;1779682;78;21050;-86
2021/09/21 05:07:06;;;;;;;4.28;2.70;;;;;;;4.22;86.24;93454.70;1804061;77;21056;-86
2021/09/21 05:09:32;;;;;;;2.85;2.50;;;;;;;4.27;85.95;93453.06;1793605;76;21141;-85
2021/09/21 05:12:00;;;;;;;3.30;2.85;;;;;;;4.29;85.69;93454.28;1747325;79;21137;-86
2021/09/21 05:14:27;;;;;;;4.97;3.22;;;;;;;4.31;85.30;93457.95;1755033;79;21092;-86
2021/09/21 05:16:55;;;;;;;3.25;2.80;;;;;;;4.33;85.04;93454.35;1809374;77;21751;-87
2021/09/21 05:19:21;;;;;;;3.15;2.00;;;;;;;4.36;83.87;93459.81;1780773;77;21066;-86
2021/09/21 05:21:49;;;;;;;3.33;2.55;;;;;;;4.39;82.93;93464.46;1759730;79;21065;-87
2021/09/21 05:24:15;;;;;;;4.17;2.75;;;;;;;4.43;83.11;93460.50;1803202;77;21069;-87
2021/09/21 05:26:43;;;;;;;2.10;1.90;;;;;;;4.48;82.57;93460.23;1744358;80;21027;-86
2021/09/21 05:29:10;;;;;;;2.55;1.80;;;;;;;4.49;80.43;93471.20;1778733;78;21331;-85
2021/09/21 05:31:36;;;;;;;2.83;2.10;;;;;;;4.50;78.45;93468.72;1715908;81;21716;-87
2021/09/21 05:34:03;;;;;;;2.52;2.33;;;;;;;4.54;78.55;93466.87;1758719;78;21078;-86
2021/09/21 05:36:30;;;;;;;2.33;2.12;;;;;;;4.57;78.48;93472.12;1769741;79;20971;-85
2021/09/21 05:38:56;;;;;;;2.70;2.37;;;;;;;4.60;78.38;93480.84;1754010;79;21093;-85
2021/09/21 05:41:23;;;;;;;2.20;1.85;;;;;;;4.63;78.61;93480.14;1775636;79;21061;-86
2021/09/21 05:43:51;;;;;;;3.70;2.30;;;;;;;4.69;77.46;93488.70;1744428;79;21050;-88
2021/09/21 05:46:18;;;;;;;2.30;2.00;;;;;;;4.70;75.59;93486.20;1700910;81;21110;-85
2021/09/21 05:48:45;;;;;;;3.37;3.02;;;;;;;4.70;74.46;93487.02;1718335;81;21124;-85
2021/09/21 05:51:12;;;;;;;1.70;1.60;;;;;;;4.72;73.99;93493.38;1755612;78;21050;-85
2021/09/21 05:53:38;;;;;;;1.80;1.70;;;;;;;4.73;72.67;93489.54;1782481;78;21037;-84
2021/09/21 05:56:06;;;;;;;2.58;1.90;;;;;;;4.74;72.64;93495.12;1749731;78;21041;-84
2021/09/21 05:58:33;;;;;;;2.65;1.90;;;;;;;4.75;72.85;93498.84;1717894;80;21095;-86
2021/09/21 06:01:02;;;;;;;2.77;2.05;;;;;;;4.78;72.21;93504.09;1743328;80;21038;-82
2021/09/21 06:03:28;;;;;;;2.00;1.90;;;;;;;4.84;72.46;93501.30;1768629;78;21742;-84
2021/09/21 06:05:55;;;;;;;1.80;1.70;;;;;;;4.86;71.58;93503.08;1718460;81;21605;-85
2021/09/21 06:08:25;;;;;;;2.37;2.12;;;;;;;4.86;71.36;93498.47;1714529;81;39287;-86
2021/09/21 06:10:51;;;;;;;6.40;2.05;;;;;;;5.03;70.82;93502.61;1684988;83;21144;-85
2021/09/21 06:13:17;;;;;;;2.55;2.35;;;;;;;5.22;71.16;93499.09;1747103;77;21139;-85
2021/09/21 06:15:47;;;;;;;2.70;2.37;;;;;;;5.32;70.27;93499.08;1782274;77;21104;-86
2021/09/21 06:18:15;;;;;;;5.50;2.35;;;;;;;5.34;69.76;93505.68;1736770;80;21112;-87
2021/09/21 06:20:43;;;;;;;3.08;2.12;;;;;;;5.36;69.92;93499.34;1780552;78;21088;-86
2021/09/21 06:23:18;;;;;;;1.67;1.57;;;;;;;5.38;70.13;93500.34;1735727;79;21043;-84
2021/09/21 06:25:44;;;;;;;2.83;2.22;;;;;;;5.41;70.40;93502.30;1754765;79;21088;-88
2021/09/21 06:28:11;;;;;;;2.52;2.33;;;;;;;5.42;69.52;93501.76;1745010;79;21050;-87
2021/09/21 06:30:39;;;;;;;2.25;2.05;;;;;;;5.43;70.30;93498.69;1730387;81;21356;-84
2021/09/21 06:33:06;;;;;;;2.33;2.10;;;;;;;5.50;69.41;93498.03;1719736;80;21525;-85
2021/09/21 06:35:34;;;;;;;2.60;2.20;;;;;;;5.61;70.69;93504.38;1729696;81;21734;-85
2021/09/21 06:38:01;;;;;;;4.87;2.27;;;;;;;5.75;69.80;93496.48;1738767;79;21153;-86
2021/09/21 06:40:27;;;;;;;2.27;2.17;;;;;;;5.91;66.44;93503.69;1755494;79;21082;-85
2021/09/21 06:42:53;;;;;;;2.22;2.02;;;;;;;6.01;66.01;93500.37;1779352;78;21072;-85
2021/09/21 06:45:21;;;;;;;2.95;2.75;;;;;;;6.20;66.75;93500.25;1805906;77;22081;-86
2021/09/21 06:47:48;;;;;;;2.70;2.50;;;;;;;6.43;65.88;93492.64;1771693;78;21124;-87
2021/09/21 06:50:15;;;;;;;2.42;2.22;;;;;;;6.61;66.54;93492.30;1716862;79;21050;-86
2021/09/21 06:52:42;;;;;;;2.02;1.72;;;;;;;6.80;66.10;93490.00;1748672;80;21702;-86
2021/09/21 06:55:10;;;;;;;2.47;1.85;;;;;;;6.95;65.35;93493.06;1754382;78;21037;-86
2021/09/21 06:57:38;;;;;;;2.50;2.27;;;;;;;7.05;64.29;93493.76;1752477;79;21786;-86
2021/09/21 07:00:06;;;;;;;2.02;1.92;;;;;;;7.16;64.42;93490.39;1771093;79;21120;-87
2021/09/21 07:02:32;;;;;;;1.70;1.60;;;;;;;7.33;63.72;93486.30;1743590;79;21061;-86
2021/09/21 07:04:59;;;;;;;1.80;1.70;;;;;;;7.48;63.26;93488.75;1754092;80;21101;-86
2021/09/21 07:07:27;;;;;;;2.35;2.15;;;;;;;7.66;62.68;93488.91;1767809;77;21047;-84
2021/09/21 07:09:54;;;;;;;2.62;1.98;;;;;;;7.82;62.06;93483.80;1739018;79;21113;-86
2021/09/21 07:12:20;;;;;;;2.77;2.25;;;;;;;7.98;61.83;93482.97;1715984;81;21750;-88
2021/09/21 07:14:49;;;;;;;3.33;1.98;;;;;;;8.11;59.26;93490.97;1774725;78;21093;-86
2021/09/21 07:17:18;;;;;;;2.02;1.92;;;;;;;8.14;59.71;93490.80;1755747;78;21581;-88
2021/09/21 07:19:45;;;;;;;2.75;1.77;;;;;;;8.08;60.14;93500.42;1756361;78;21080;-87
2021/09/21 07:22:13;;;;;;;1.70;1.60;;;;;;;8.02;60.05;93500.79;1772850;78;21138;-88
2021/09/21 07:24:41;;;;;;;2.00;1.80;;;;;;;7.88;59.84;93503.97;1770239;78;21823;-87
2021/09/21 07:27:07;;;;;;;1.55;1.45;;;;;;;7.71;60.33;93492.64;1750915;79;21167;-87
2021/09/21 07:29:34;;;;;;;4.17;2.12;;;;;;;7.59;60.49;93496.19;1785966;77;21068;-88
2021/09/21 07:32:01;;;;;;;2.35;1.70;;;;;;;7.55;61.83;93500.98;1735574;79;21129;-86
2021/09/21 07:34:27;;;;;;;1.55;1.45;;;;;;;7.65;61.36;93500.89;1771212;78;21037;-86
2021/09/21 07:36:54;;;;;;;1.27;1.25;;;;;;;7.75;61.46;93493.44;1799011;78;21083;-88
2021/09/21 07:39:20;;;;;;;1.40;1.30;;;;;;;7.86;60.58;93490.82;1774856;79;21034;-88
2021/09/21 07:41:46;;;;;;;2.10;2.00;;;;;;;7.85;59.24;93491.95;1737603;80;21063;-86
2021/09/21 07:44:13;;;;;;;4.97;2.30;;;;;;;7.86;57.60;93485.41;1757235;78;21064;-88
2021/09/21 07:46:40;;;;;;;3.12;2.62;;;;;;;7.93;59.62;93491.42;1748428;80;21080;-87
2021/09/21 07:49:06;;;;;;;1.90;1.80;;;;;;;8.07;60.21;93486.69;1751386;78;21069;-87
2021/09/21 07:51:34;;;;;;;1.80;1.55;;;;;;;8.22;58.36;93488.33;1750068;80;21084;-88
2021/09/21 07:54:02;;;;;;;1.42;1.32;;;;;;;8.27;57.85;93487.41;1705711;81;21070;-86
2021/09/21 07:56:30;;;;;;;2.17;1.70;;;;;;;8.34;58.25;93487.23;1761033;78;21041;-86
2021/09/21 07:58:56;;;;;;;1.60;1.50;;;;;;;8.42;58.51;93485.56;1763855;77;21137;-88
2021/09/21 08:01:24;;;;;;;1.47;1.37;;;;;;;8.53;57.87;93480.20;1732627;78;22311;-87
2021/09/21 08:03:50;;;;;;;1.87;1.70;;;;;;;8.61;58.72;93485.84;1811100;77;21085;-88
2021/09/21 08:06:16;;;;;;;1.98;1.82;;;;;;;8.69;56.76;93486.09;1779342;78;21080;-87
2021/09/21 08:08:44;;;;;;;1.92;1.80;;;;;;;8.73;56.36;93487.47;1808410;77;21111;-86
2021/09/21 08:11:11;;;;;;;2.00;1.90;;;;;;;8.81;56.82;93488.28;1791933;77;21067;-87
2021/09/21 08:13:39;;;;;;;1.70;1.50;;;;;;;8.87;56.00;93486.15;1784503;78;21599;-87
2021/09/21 08:16:07;;;;;;;1.90;1.80;;;;;;;8.96;56.27;93483.09;1774721;78;21134;-86
2021/09/21 08:18:35;;;;;;;1.60;1.50;;;;;;;9.06;56.77;93482.91;1734986;80;21113;-87
2021/09/21 08:21:02;;;;;;;1.70;1.60;;;;;;;9.18;55.45;93488.01;1773485;79;21045;-87
2021/09/21 08:23:28;;;;;;;1.70;1.60;;;;;;;9.24;55.01;93487.22;1779347;78;21080;-88
2021/09/21 08:25:54;;;;;;;1.90;1.65;;;;;;;9.30;53.88;93480.86;1772617;78;21108;-86
2021/09/21 08:28:21;;;;;;;2.33;1.67;;;;;;;9.34;53.98;93480.28;1774252;78;21081;-87
2021/09/21 08:30:49;;;;;;;2.00;1.90;;;;;;;9.41;54.88;93475.45;1729487;81;21571;-86
2021/09/21 08:33:15;;;;;;;1.70;1.60;;;;;;;9.53;54.08;93475.65;1753593;79;21034;-87
2021/09/21 08:35:42;;;;;;;1.37;1.27;;;;;;;9.61;52.69;93479.33;1734906;80;21148;-86
2021/09/21 08:38:09;;;;;;;1.60;1.50;;;;;;;9.61;52.08;93483.98;1721021;80;21158;-87
2021/09/21 08:40:36;;;;;;;2.87;1.57;;;;;;;9.57;52.82;93475.84;1768684;79;21058;-88
2021/09/21 08:43:02;;;;;;;2.00;1.80;;;;;;;9.62;52.15;93482.23;1765240;80;21101;-87
2021/09/21 08:45:29;;;;;;;1.80;1.47;;;;;;;9.74;53.07;93482.42;1770820;79;21021;-87
2021/09/21 08:47:56;;;;;;;1.32;1.22;;;;;;;9.89;52.41;93479.93;1778128;79;21054;-87
2021/09/21 08:50:23;;;;;;;2.15;1.47;;;;;;;10.02;52.04;93478.17;1761580;79;21660;-86
2021/09/21 08:52:50;;;;;;;3.22;1.77;;;;;;;10.05;51.54;93480.89;1758942;79;21034;-87
2021/09/21 08:55:16;;;;;;;1.37;1.27;;;;;;;10.07;51.82;93471.75;1763917;79;21268;-88
2021/09/21 08:57:43;;;;;;;1.72;1.62;;;;;;;10.09;49.83;93471.38;1775785;79;21512;-86
2021/09/21 09:00:26;;;;;;;1.50;1.40;;;;;;;10.07;51.22;93472.33;1740937;81;21062;-86
2021/09/21 09:03:12;;;;;;;1.70;1.60;;;;;;;10.07;51.71;93469.03;1783693;78;22114;-88
2021/09/21 09:05:50;;;;;;;1.55;1.27;;;;;;;10.17;52.21;93473.68;1769528;79;21658;-87
2021/09/21 09:08:37;;;;;;;2.37;1.37;;;;;;;10.29;51.33;93482.63;1760111;79;21084;-88
2021/09/21 09:11:23;;;;;;;2.37;1.77;;;;;;;10.32;52.14;93478.54;1778890;79;21820;-85
2021/09/21 09:13:55;;;;;;;1.30;1.20;;;;;;;10.35;49.27;93481.06;1772588;78;21072;-86
2021/09/21 09:16:25;;;;;;;1.60;1.50;;;;;;;10.30;49.18;93478.73;1727741;80;21927;-86
2021/09/21 09:19:05;;;;;;;1.65;1.52;;;;;;;10.25;47.85;93479.11;1750184;80;21065;-86
2021/09/21 09:21:37;;;;;;;1.70;1.60;;;;;;;10.10;47.57;93476.99;1748578;80;21090;-86
2021/09/21 09:24:07;;;;;;;1.70;1.60;;;;;;;10.03;48.26;93481.07;1787928;78;21430;-86
2021/09/21 09:26:37;;;;;;;1.92;1.77;;;;;;;10.02;49.02;93487.68;1735428;78;21177;-87
2021/09/21 09:29:09;;;;;;;2.77;2.52;;;;;;;9.96;49.36;93484.56;1730991;81;21098;-85
2021/09/21 09:31:37;;;;;;;1.80;1.70;;;;;;;9.94;49.41;93487.68;1722127;80;21066;-86
2021/09/21 09:34:09;;;;;;;2.55;2.35;;;;;;;9.96;49.19;93483.97;1741804;80;21227;-86
2021/09/21 09:36:55;;;;;;;2.12;1.82;;;;;;;10.03;49.09;93489.22;1781112;78;21061;-86
2021/09/21 09:39:23;;;;;;;1.57;1.47;;;;;;;10.04;48.75;93479.34;1769571;78;21109;-85
2021/09/21 09:41:52;;;;;;;1.50;1.40;;;;;;;10.04;49.50;93484.77;1751203;78;22030;-86
2021/09/21 09:44:21;;;;;;;1.30;1.20;;;;;;;10.12;49.62;93484.95;1768672;77;21536;-85
2021/09/21 09:46:54;;;;;;;1.80;1.70;;;;;;;10.18;49.76;93482.61;1796292;77;21898;-84
2021/09/21 09:49:28;;;;;;;2.17;1.67;;;;;;;10.25;49.39;93489.42;1753123;78;21116;-86
2021/09/21 09:52:07;;;;;;;4.03;1.40;;;;;;;10.28;49.11;93487.88;1731771;80;21124;-84
2021/09/21 09:54:35;;;;;;;1.20;1.15;;;;;;;10.34;49.38;93484.93;1777391;78;21126;-85
2021/09/21 09:57:03;;;;;;;1.55;1.45;;;;;;;10.33;48.26;93497.75;1742366;80;21080;-87
2021/09/21 09:59:30;;;;;;;2.75;1.55;;;;;;;10.29;49.00;93487.47;1757694;78;21101;-86
2021/09/21 10:01:56;;;;;;;1.67;1.57;;;;;;;10.29;48.95;93484.75;1768876;79;21042;-84
2021/09/21 10:04:23;;;;;;;1.90;1.80;;;;;;;10.26;48.49;93490.96;1744048;79;21077;-84
2021/09/21 10:06:50;;;;;;;2.05;1.70;;;;;;;10.17;48.21;93492.70;1803511;77;21134;-84
2021/09/21 10:09:18;;;;;;;1.45;1.35;;;;;;;10.13;48.51;93495.23;1750350;77;21128;-83
2021/09/21 10:11:47;;;;;;;3.20;2.00;;;;;;;10.06;48.52;93492.52;1750949;79;22203;-85
2021/09/21 10:14:13;;;;;;;1.57;1.47;;;;;;;10.06;49.88;93485.73;1781086;77;21033;-86
2021/09/21 10:17:05;;;;;;;1.50;1.40;;;;;;;10.16;50.89;93488.44;1773123;77;21084;-84
2021/09/21 10:19:32;;;;;;;1.80;1.70;;;;;;;10.30;51.44;93495.03;1688020;82;21626;-85
2021/09/21 10:21:59;;;;;;;1.52;1.42;;;;;;;10.42;49.82;93491.92;1693032;82;21074;-84
2021/09/21 10:24:39;;;;;;;1.87;1.77;;;;;;;10.50;49.61;93500.84;1771557;79;21055;-85
2021/09/21 10:27:08;;;;;;;1.90;1.80;;;;;;;10.55;48.21;93500.43;1744741;80;21105;-84
2021/09/21 10:29:37;;;;;;;4.17;2.20;;;;;;;10.56;48.25;93500.61;1722030;81;21114;-84
2021/09/21 10:32:15;;;;;;;3.33;3.02;;;;;;;10.53;48.11;93498.67;1725712;79;21529;-88
2021/09/21 10:34:45;;;;;;;2.65;2.37;;;;;;;10.48;47.65;93506.66;1771785;79;21599;-84
2021/09/21 10:37:15;;;;;;;1.92;1.72;;;;;;;10.49;49.12;93506.84;1781817;79;21134;-85
2021/09/21 10:39:43;;;;;;;6.65;1.80;;;;;;;10.52;47.70;93501.20;1748475;78;21112;-86
2021/09/21 10:42:13;;;;;;;1.75;1.65;;;;;;;10.50;47.10;93500.25;1774653;80;21896;-84
2021/09/21 10:44:53;;;;;;;3.15;2.08;;;;;;;10.46;47.10;93509.00;1785201;78;21686;-87
2021/09/21 10:47:25;;;;;;;4.42;2.10;;;;;;;10.41;46.80;93508.02;1768970;79;21041;-83
2021/09/21 10:50:14;;;;;;;2.90;1.92;;;;;;;10.41;48.06;93517.53;1759118;80;21069;-86
2021/09/21 10:52:42;;;;;;;3.25;1.90;;;;;;;10.38;46.46;93515.59;1776395;79;21103;-87
2021/09/21 10:55:13;;;;;;;2.60;2.40;;;;;;;10.32;47.01;93517.17;1770881;79;21050;-85
2021/09/21 10:57:44;;;;;;;2.15;2.00;;;;;;;10.29;47.42;93511.93;1772370;80;21030;-87
2021/09/21 11:00:23;;;;;;;2.25;2.05;;;;;;;10.31;47.35;93515.63;1747328;79;21077;-86
2021/09/21 11:02:53;;;;;;;2.15;2.05;;;;;;;10.36;47.02;93518.72;1747166;80;21094;-85
2021/09/21 11:05:26;;;;;;;2.67;2.10;;;;;;;10.38;46.85;93510.96;1710905;81;21079;-86
2021/09/21 11:08:00;;;;;;;2.67;2.30;;;;;;;10.40;47.47;93508.61;1739440;79;21731;-86
2021/09/21 11:10:31;;;;;;;4.03;3.62;;;;;;;10.46;47.14;93514.44;1779392;78;21166;-86
2021/09/21 11:12:58;;;;;;;3.58;3.27;;;;;;;10.55;48.11;93514.80;1741109;78;21573;-86
2021/09/21 11:15:28;;;;;;;2.72;2.52;;;;;;;10.61;47.45;93520.63;1770112;78;21074;-85
2021/09/21 11:18:15;;;;;;;2.83;2.60;;;;;;;10.59;47.89;93522.36;1762672;77;21751;-85
2021/09/21 11:20:59;;;;;;;2.67;2.47;;;;;;;10.60;48.49;93516.33;1739592;80;21093;-84
2021/09/21 11:23:35;;;;;;;2.10;2.00;;;;;;;10.64;48.46;93516.53;1777190;78;21117;-85
2021/09/21 11:26:06;;;;;;;2.10;1.90;;;;;;;10.64;46.81;93516.53;1708144;80;21105;-86
2021/09/21 11:28:38;;;;;;;2.45;2.22;;;;;;;10.59;48.52;93512.06;1737677;80;21025;-87
2021/09/21 11:31:04;;;;;;;2.12;2.02;;;;;;;10.56;47.73;93529.94;1720019;81;21057;-85
2021/09/21 11:33:36;;;;;;;5.65;2.92;;;;;;;10.51;47.11;93514.03;1700167;80;21610;-85
2021/09/21 11:36:06;;;;;;;4.50;2.25;;;;;;;10.44;47.98;93521.61;1740696;79;21790;-84
2021/09/21 11:38:41;;;;;;;2.17;2.08;;;;;;;10.41;48.83;93530.55;1699290;81;21280;-84
2021/09/21 11:41:09;;;;;;;2.10;1.92;;;;;;;10.36;47.81;93526.88;1731763;78;20986;-85
2021/09/21 11:43:37;;;;;;;2.60;2.40;;;;;;;10.26;48.07;93524.94;1786729;77;21099;-85
2021/09/21 11:46:05;;;;;;;2.77;2.52;;;;;;;10.22;48.88;93526.85;1779097;78;21053;-84
2021/09/21 11:48:31;;;;;;;3.00;2.70;;;;;;;10.20;47.79;93535.99;1742968;80;21092;-85
2021/09/21 11:50:59;;;;;;;2.58;2.37;;;;;;;10.17;49.32;93542.20;1758626;80;21061;-85
2021/09/21 11:53:29;;;;;;;2.80;2.60;;;;;;;10.16;50.33;93530.56;1775819;78;21829;-85